createdAt,value
2022-12-06T00:00:09.070Z,171.17
2022-12-06T00:02:37.053Z,191.90
2022-12-06T00:05:06.210Z,179.53
2022-12-06T00:07:34.223Z,183.73
2022-12-06T00:10:03.589Z,184.47
2022-12-06T00:12:31.577Z,184.70
2022-12-06T00:14:59.577Z,186.47
2022-12-06T00:17:28.480Z,188.30
2022-12-06T00:19:56.724Z,194.90
2022-12-06T00:22:24.828Z,196.43
2022-12-06T00:24:52.809Z,211.43
2022-12-06T00:27:22.089Z,203.37
2022-12-06T00:29:50.056Z,212.40
2022-12-06T00:32:19.813Z,193.73
2022-12-06T00:34:48.004Z,198.20
2022-12-06T00:37:15.941Z,186.67
2022-12-06T00:39:43.915Z,200.00
2022-12-06T00:42:11.876Z,199.47
2022-12-06T00:44:41.209Z,194.73
2022-12-06T00:47:09.231Z,201.90
2022-12-06T00:49:37.164Z,193.30
2022-12-06T00:52:05.540Z,203.93
2022-12-06T00:54:33.483Z,205.50
2022-12-06T00:57:01.447Z,198.27
2022-12-06T00:59:29.413Z,192.97
2022-12-06T01:01:58.871Z,185.97
2022-12-06T01:04:26.842Z,192.03
2022-12-06T01:06:54.787Z,172.17
2022-12-06T01:09:22.739Z,189.63
2022-12-06T01:11:50.749Z,169.93
2022-12-06T01:14:18.680Z,172.60
2022-12-06T01:16:46.667Z,180.83
2022-12-06T01:19:16.092Z,178.20
2022-12-06T01:21:44.056Z,168.37
2022-12-06T01:24:12.044Z,170.00
2022-12-06T01:26:40.012Z,168.10
2022-12-06T01:29:07.991Z,187.33
2022-12-06T01:31:38.912Z,182.40
2022-12-06T01:34:08.194Z,182.80
2022-12-06T01:36:37.518Z,176.83
2022-12-06T01:39:10.395Z,181.90
2022-12-06T01:41:39.660Z,170.73
2022-12-06T01:44:08.262Z,187.37
2022-12-06T01:46:39.639Z,177.33
2022-12-06T01:49:15.674Z,195.50
2022-12-06T01:51:49.390Z,193.57
2022-12-06T01:54:21.881Z,190.67
2022-12-06T01:56:51.657Z,196.53
2022-12-06T01:59:20.266Z,182.47
2022-12-06T02:01:48.726Z,190.20
2022-12-06T02:04:18.763Z,176.50
2022-12-06T02:06:48.558Z,171.47
2022-12-06T02:09:17.783Z,154.40
2022-12-06T02:11:47.338Z,145.63
2022-12-06T02:14:22.305Z,146.30
2022-12-06T02:17:13.928Z,134.40
2022-12-06T02:20:01.254Z,135.10
2022-12-06T02:22:44.647Z,131.37
2022-12-06T02:25:34.221Z,126.20
2022-12-06T02:28:20.546Z,126.63
2022-12-06T02:30:55.512Z,125.20
2022-12-06T02:33:29.838Z,121.27
2022-12-06T02:36:05.312Z,119.53
2022-12-06T02:38:36.494Z,132.27
2022-12-06T02:41:11.567Z,122.77
2022-12-06T02:43:42.986Z,134.43
2022-12-06T02:46:15.417Z,123.80
2022-12-06T02:48:44.509Z,124.07
2022-12-06T02:51:15.439Z,116.30
2022-12-06T02:53:46.983Z,112.87
2022-12-06T02:56:17.045Z,106.13
2022-12-06T02:58:45.096Z,110.97
2022-12-06T03:01:18.145Z,106.97
2022-12-06T03:04:08.234Z,106.60
2022-12-06T03:06:55.709Z,99.40
2022-12-06T03:09:35.914Z,108.00
2022-12-06T03:12:11.371Z,102.43
2022-12-06T03:14:46.738Z,100.30
2022-12-06T03:17:24.006Z,107.73
2022-12-06T03:19:59.053Z,103.20
2022-12-06T03:22:38.270Z,97.33
2022-12-06T03:25:09.099Z,102.63
2022-12-06T03:27:37.583Z,97.00
2022-12-06T03:30:09.632Z,99.73
2022-12-06T03:32:41.530Z,97.73
2022-12-06T03:35:13.064Z,94.07
2022-12-06T03:37:45.645Z,100.00
2022-12-06T03:40:19.514Z,101.60
2022-12-06T03:42:48.851Z,95.47
2022-12-06T03:45:17.964Z,88.97
2022-12-06T03:47:54.256Z,99.87
2022-12-06T03:50:27.065Z,93.40
2022-12-06T03:52:55.260Z,85.90
2022-12-06T03:55:23.380Z,94.60
2022-12-06T03:57:51.356Z,90.67
2022-12-06T04:00:19.873Z,95.30
2022-12-06T04:02:49.253Z,103.97
2022-12-06T04:05:17.322Z,109.30
2022-12-06T04:07:45.364Z,112.47
2022-12-06T04:10:13.440Z,108.43
2022-12-06T04:12:59.008Z,99.87
2022-12-06T04:15:27.850Z,92.93
2022-12-06T04:18:13.857Z,88.97
2022-12-06T04:21:04.840Z,85.20
2022-12-06T04:23:35.517Z,85.80
2022-12-06T04:26:04.706Z,80.33
2022-12-06T04:28:50.255Z,79.83
2022-12-06T04:31:35.726Z,83.13
2022-12-06T04:34:22.873Z,86.93
2022-12-06T04:37:08.987Z,88.60
2022-12-06T04:39:37.342Z,82.20
2022-12-06T04:42:22.967Z,88.73
2022-12-06T04:44:50.958Z,85.63
2022-12-06T04:47:19.098Z,85.10
2022-12-06T04:49:48.637Z,82.97
2022-12-06T04:52:17.293Z,72.97
2022-12-06T04:54:45.338Z,77.93
2022-12-06T04:57:15.286Z,73.73
2022-12-06T04:59:46.191Z,68.90
2022-12-06T05:02:16.479Z,69.27
2022-12-06T05:04:44.448Z,59.93
2022-12-06T05:07:13.770Z,65.47
2022-12-06T05:09:41.758Z,60.87
2022-12-06T05:12:09.807Z,67.43
2022-12-06T05:14:37.806Z,64.77
2022-12-06T05:17:05.787Z,60.33
2022-12-06T05:19:33.860Z,68.17
2022-12-06T05:22:01.878Z,68.23
2022-12-06T05:24:31.300Z,49.70
2022-12-06T05:26:59.315Z,57.53
2022-12-06T05:29:27.292Z,64.53
2022-12-06T05:31:55.282Z,64.73
2022-12-06T05:34:24.844Z,67.47
2022-12-06T05:36:52.828Z,71.47
2022-12-06T05:39:20.800Z,63.70
2022-12-06T05:41:50.103Z,62.53
2022-12-06T05:44:18.123Z,65.47
2022-12-06T05:46:46.103Z,67.40
2022-12-06T05:49:14.078Z,63.80
2022-12-06T05:51:42.062Z,60.27
2022-12-06T05:54:10.016Z,65.13
2022-12-06T05:56:37.983Z,62.70
2022-12-06T05:59:07.308Z,64.63
2022-12-06T06:01:35.305Z,66.03
2022-12-06T06:04:03.235Z,62.83
2022-12-06T06:06:31.190Z,58.50
2022-12-06T06:08:59.155Z,53.27
2022-12-06T06:11:27.500Z,56.37
2022-12-06T06:13:55.492Z,52.27
2022-12-06T06:16:24.873Z,51.00
2022-12-06T06:18:52.897Z,48.77
2022-12-06T06:21:20.892Z,49.23
2022-12-06T06:23:48.931Z,55.20
2022-12-06T06:26:17.038Z,47.93
2022-12-06T06:28:45.128Z,47.53
2022-12-06T06:31:13.180Z,47.83
2022-12-06T06:33:42.634Z,47.93
2022-12-06T06:36:11.172Z,50.10
2022-12-06T06:38:39.285Z,49.47
2022-12-06T06:41:08.014Z,46.50
2022-12-06T06:43:36.155Z,50.33
2022-12-06T06:46:07.013Z,46.03
2022-12-06T06:48:37.537Z,42.67
2022-12-06T06:51:09.287Z,40.83
2022-12-06T06:53:37.802Z,41.47
2022-12-06T06:56:06.617Z,41.47
2022-12-06T06:58:34.999Z,39.93
2022-12-06T07:01:05.645Z,43.70
2022-12-06T07:03:34.824Z,41.20
2022-12-06T07:06:05.609Z,42.13
2022-12-06T07:08:35.145Z,43.83
2022-12-06T07:11:03.475Z,40.67
2022-12-06T07:13:32.485Z,49.13
2022-12-06T07:16:00.590Z,44.07
2022-12-06T07:18:29.148Z,42.43
2022-12-06T07:21:01.832Z,42.73
2022-12-06T07:23:29.805Z,43.83
2022-12-06T07:26:03.525Z,50.60
2022-12-06T07:28:31.530Z,48.10
2022-12-06T07:30:59.682Z,50.33
2022-12-06T07:33:27.690Z,56.47
2022-12-06T07:36:12.833Z,49.90
2022-12-06T07:38:42.314Z,55.37
2022-12-06T07:41:31.066Z,54.60
2022-12-06T07:44:17.673Z,50.17
2022-12-06T07:46:46.273Z,52.90
2022-12-06T07:49:16.515Z,52.77
2022-12-06T07:51:44.683Z,50.03
2022-12-06T07:54:13.742Z,52.20
2022-12-06T07:56:44.144Z,55.67
2022-12-06T07:59:12.854Z,62.63
2022-12-06T08:01:40.985Z,57.23
2022-12-06T08:04:09.459Z,52.87
2022-12-06T08:06:38.013Z,55.30
2022-12-06T08:09:06.871Z,52.80
2022-12-06T08:11:34.962Z,62.30
2022-12-06T08:14:04.690Z,57.90
2022-12-06T08:16:32.783Z,59.00
2022-12-06T08:19:00.922Z,63.97
2022-12-06T08:21:28.938Z,58.80
2022-12-06T08:23:56.957Z,56.70
2022-12-06T08:26:25.190Z,61.03
2022-12-06T08:28:53.605Z,53.03
2022-12-06T08:31:25.121Z,52.17
2022-12-06T08:33:53.300Z,54.23
2022-12-06T08:36:23.083Z,53.37
2022-12-06T08:38:52.630Z,51.60
2022-12-06T08:41:38.828Z,54.73
2022-12-06T08:44:07.272Z,48.40
2022-12-06T08:46:37.076Z,51.67
2022-12-06T08:49:05.500Z,53.20
2022-12-06T08:51:37.294Z,56.83
2022-12-06T08:54:06.907Z,58.17
2022-12-06T08:56:35.586Z,58.53
2022-12-06T08:59:03.556Z,53.20
2022-12-06T09:01:37.661Z,50.93
2022-12-06T09:04:09.590Z,50.93
2022-12-06T09:06:39.836Z,50.17
2022-12-06T09:09:08.955Z,53.80
2022-12-06T09:11:36.975Z,53.07
2022-12-06T09:14:05.516Z,49.50
2022-12-06T09:16:33.596Z,52.30
2022-12-06T09:19:01.996Z,59.17
2022-12-06T09:21:32.954Z,57.60
2022-12-06T09:24:01.198Z,49.00
2022-12-06T09:26:29.907Z,55.33
2022-12-06T09:28:59.111Z,55.63
2022-12-06T09:31:27.819Z,51.20
2022-12-06T09:33:55.904Z,50.17
2022-12-06T09:36:25.743Z,46.03
2022-12-06T09:39:00.295Z,50.83
2022-12-06T09:42:18.165Z,41.83
2022-12-06T09:45:07.485Z,41.27
2022-12-06T09:47:45.273Z,42.50
2022-12-06T09:50:23.924Z,44.93
2022-12-06T09:53:05.739Z,43.57
2022-12-06T09:55:48.245Z,43.53
2022-12-06T09:58:27.918Z,40.47
2022-12-06T10:01:06.800Z,45.40
2022-12-06T10:04:02.947Z,45.93
2022-12-06T10:06:38.200Z,51.60
2022-12-06T10:09:25.359Z,55.27
2022-12-06T10:12:11.789Z,56.17
2022-12-06T10:14:57.480Z,59.77
2022-12-06T10:17:32.301Z,64.50
2022-12-06T10:20:08.697Z,59.70
2022-12-06T10:22:48.109Z,64.63
2022-12-06T10:25:22.416Z,60.33
2022-12-06T10:28:02.067Z,59.10
2022-12-06T10:30:30.142Z,59.67
2022-12-06T10:33:06.590Z,55.53
2022-12-06T10:35:42.806Z,50.97
2022-12-06T10:38:20.543Z,52.90
2022-12-06T10:40:56.891Z,49.73
2022-12-06T10:43:30.824Z,49.97
2022-12-06T10:46:25.545Z,37.83
2022-12-06T10:49:01.789Z,33.10
2022-12-06T10:51:36.989Z,28.83
2022-12-06T10:54:16.159Z,28.23
2022-12-06T10:56:46.257Z,33.23
2022-12-06T10:59:27.391Z,24.53
2022-12-06T11:01:59.942Z,19.90
2022-12-06T11:04:33.535Z,20.10
2022-12-06T11:07:06.922Z,15.87
2022-12-06T11:09:40.691Z,17.37
2022-12-06T11:12:26.633Z,16.37
2022-12-06T11:15:05.484Z,14.27
2022-12-06T11:17:37.742Z,16.27
2022-12-06T11:20:17.406Z,13.80
2022-12-06T11:22:51.482Z,13.07
2022-12-06T11:25:28.084Z,12.53
2022-12-06T11:28:01.858Z,13.63
2022-12-06T11:30:33.802Z,10.20
2022-12-06T11:33:02.957Z,10.00
2022-12-06T11:35:30.946Z,12.13
2022-12-06T11:38:02.533Z,12.53
2022-12-06T11:40:33.487Z,12.83
2022-12-06T11:43:07.003Z,13.67
2022-12-06T11:45:40.310Z,12.53
2022-12-06T11:48:15.003Z,15.50
2022-12-06T11:50:44.796Z,18.90
2022-12-06T11:53:20.384Z,18.30
2022-12-06T11:55:52.539Z,17.60
2022-12-06T11:58:27.897Z,20.53
2022-12-06T12:01:03.619Z,21.33
2022-12-06T12:03:33.929Z,18.60
2022-12-06T12:06:10.689Z,20.07
2022-12-06T12:08:39.232Z,20.23
2022-12-06T12:11:07.589Z,23.87
2022-12-06T12:13:48.602Z,27.17
2022-12-06T12:16:21.744Z,30.53
2022-12-06T12:18:56.436Z,31.37
2022-12-06T12:21:37.243Z,33.30
2022-12-06T12:24:07.295Z,35.13
2022-12-06T12:26:41.430Z,32.77
2022-12-06T12:29:18.709Z,31.63
2022-12-06T12:31:53.859Z,32.40
2022-12-06T12:34:23.756Z,33.23
2022-12-06T12:36:55.087Z,29.23
2022-12-06T12:39:26.432Z,27.90
2022-12-06T12:41:54.667Z,26.20
2022-12-06T12:44:37.716Z,35.23
2022-12-06T12:47:18.454Z,28.87
2022-12-06T12:50:02.212Z,29.50
2022-12-06T12:52:32.386Z,27.57
2022-12-06T12:55:02.408Z,25.70
2022-12-06T12:57:30.851Z,28.23
2022-12-06T12:59:59.174Z,29.73
2022-12-06T13:02:30.558Z,23.00
2022-12-06T13:05:31.306Z,22.00
2022-12-06T13:07:53.105Z,22.93
2022-12-06T13:10:25.448Z,20.33
2022-12-06T13:12:56.996Z,23.53
2022-12-06T13:15:32.293Z,26.90
2022-12-06T13:18:07.608Z,25.97
2022-12-06T13:20:36.653Z,31.87
2022-12-06T13:23:09.213Z,26.57
2022-12-06T13:25:38.068Z,30.50
2022-12-06T13:28:14.261Z,28.93
2022-12-06T13:30:43.243Z,29.07
2022-12-06T13:33:21.377Z,31.10
2022-12-06T13:35:58.346Z,27.10
2022-12-06T13:38:32.184Z,26.13
2022-12-06T13:41:01.034Z,27.70
2022-12-06T13:43:53.039Z,30.37
2022-12-06T13:46:26.647Z,27.07
2022-12-06T13:48:57.478Z,31.40
2022-12-06T13:51:47.876Z,28.30
2022-12-06T13:54:37.314Z,32.73
2022-12-06T13:57:31.753Z,28.77
2022-12-06T14:00:00.050Z,28.10
2022-12-06T14:02:52.662Z,25.63
2022-12-06T14:06:07.414Z,27.60
2022-12-06T14:08:42.736Z,27.27
2022-12-06T14:11:21.990Z,27.87
2022-12-06T14:14:00.096Z,29.63
2022-12-06T14:16:33.582Z,29.97
2022-12-06T14:19:03.847Z,27.20
2022-12-06T14:21:37.743Z,25.77
2022-12-06T14:24:06.154Z,27.03
2022-12-06T14:26:35.505Z,24.10
2022-12-06T14:29:03.733Z,25.83
2022-12-06T14:31:39.286Z,24.07
2022-12-06T14:34:07.368Z,29.00
2022-12-06T14:36:41.431Z,24.20
2022-12-06T14:39:17.211Z,27.13
2022-12-06T14:42:10.439Z,27.23
2022-12-06T14:44:38.673Z,25.03
2022-12-06T14:47:08.145Z,32.60
2022-12-06T14:50:03.197Z,27.23
2022-12-06T14:52:33.151Z,29.87
2022-12-06T14:55:17.228Z,31.93
2022-12-06T14:57:48.104Z,29.77
2022-12-06T15:00:26.703Z,27.17
2022-12-06T15:03:24.088Z,28.60
2022-12-06T15:06:09.188Z,27.23
2022-12-06T15:08:40.608Z,27.20
2022-12-06T15:11:43.924Z,22.27
2022-12-06T15:14:15.097Z,21.90
2022-12-06T15:16:45.276Z,22.00
2022-12-06T15:19:15.330Z,21.30
2022-12-06T15:21:43.630Z,21.13
2022-12-06T15:24:21.260Z,22.20
2022-12-06T15:26:49.874Z,20.07
2022-12-06T15:29:18.482Z,23.90
2022-12-06T15:31:49.676Z,21.30
2022-12-06T15:34:24.986Z,23.90
2022-12-06T15:37:09.013Z,23.07
2022-12-06T15:39:42.831Z,27.63
2022-12-06T15:42:17.024Z,34.33
2022-12-06T15:44:49.103Z,35.43
2022-12-06T15:47:28.706Z,38.53
2022-12-06T15:49:58.323Z,41.37
2022-12-06T15:52:27.506Z,41.50
2022-12-06T15:54:57.660Z,40.40
2022-12-06T15:57:25.647Z,44.80
2022-12-06T15:59:53.725Z,54.43
2022-12-06T16:02:21.717Z,65.83
2022-12-06T16:04:51.302Z,65.77
2022-12-06T16:07:19.715Z,78.47
2022-12-06T16:09:48.676Z,66.80
2022-12-06T16:12:18.407Z,50.27
2022-12-06T16:14:46.481Z,41.53
2022-12-06T16:17:14.518Z,35.67
2022-12-06T16:19:59.757Z,37.73
2022-12-06T16:22:41.683Z,31.20
2022-12-06T16:25:10.164Z,32.73
2022-12-06T16:27:39.582Z,35.07
2022-12-06T16:30:08.965Z,33.77
2022-12-06T16:32:36.949Z,44.97
2022-12-06T16:35:05.327Z,41.27
2022-12-06T16:37:33.299Z,46.47
2022-12-06T16:40:01.313Z,45.63
2022-12-06T16:42:29.299Z,43.50
2022-12-06T16:44:58.954Z,40.27
2022-12-06T16:49:53.973Z,43.17
2022-12-06T16:52:21.964Z,49.27
2022-12-06T16:54:49.905Z,46.53
2022-12-06T16:57:19.538Z,49.83
2022-12-06T16:59:47.588Z,57.90
2022-12-06T17:02:29.236Z,50.60
2022-12-06T17:04:58.881Z,49.93
2022-12-06T17:07:27.186Z,46.97
2022-12-06T17:09:55.295Z,48.40
2022-12-06T17:12:23.265Z,49.83
2022-12-06T17:14:51.581Z,48.50
2022-12-06T17:17:25.920Z,48.77
2022-12-06T17:19:54.537Z,50.40
2022-12-06T17:22:22.723Z,52.53
2022-12-06T17:24:50.875Z,54.37
2022-12-06T17:27:19.075Z,55.20
2022-12-06T17:29:47.052Z,48.20
2022-12-06T17:32:15.330Z,47.47
2022-12-06T17:34:44.716Z,41.00
2022-12-06T17:37:12.670Z,43.63
2022-12-06T17:39:40.808Z,43.83
2022-12-06T17:42:26.380Z,35.93
2022-12-06T17:44:54.430Z,34.20
2022-12-06T17:47:22.421Z,33.47
2022-12-06T17:49:52.680Z,33.37
2022-12-06T17:52:20.660Z,40.23
2022-12-06T17:54:48.630Z,34.60
2022-12-06T17:57:18.463Z,38.27
2022-12-06T17:59:48.270Z,31.30
2022-12-06T18:02:18.664Z,34.23
2022-12-06T18:04:48.438Z,46.73
2022-12-06T18:07:18.771Z,34.57
2022-12-06T18:09:47.017Z,30.87
2022-12-06T18:12:15.827Z,27.10
2022-12-06T18:14:44.121Z,26.23
2022-12-06T18:17:12.462Z,24.33
2022-12-06T18:19:41.427Z,28.43
2022-12-06T18:22:09.682Z,32.63
2022-12-06T18:24:39.103Z,31.10
2022-12-06T18:27:07.654Z,34.30
2022-12-06T18:29:36.123Z,30.27
2022-12-06T18:32:04.849Z,30.53
2022-12-06T18:34:32.882Z,29.73
2022-12-06T18:37:01.319Z,28.37
2022-12-06T18:39:29.315Z,32.77
2022-12-06T18:41:58.623Z,33.40
2022-12-06T18:44:26.839Z,29.47
2022-12-06T18:46:54.887Z,28.93
2022-12-06T18:49:22.897Z,30.10
2022-12-06T18:51:50.881Z,27.30
2022-12-06T18:54:18.907Z,37.80
2022-12-06T18:56:46.872Z,37.77
2022-12-06T18:59:16.300Z,38.10
2022-12-06T19:01:44.429Z,36.77
2022-12-06T19:04:14.932Z,38.93
2022-12-06T19:06:45.099Z,42.17
2022-12-06T19:09:14.902Z,43.20
2022-12-06T19:11:45.864Z,43.53
2022-12-06T19:14:16.313Z,46.67
2022-12-06T19:16:46.311Z,43.43
2022-12-06T19:19:17.249Z,41.23
2022-12-06T19:21:46.087Z,39.87
2022-12-06T19:24:16.044Z,40.63
2022-12-06T19:26:44.150Z,44.17
2022-12-06T19:29:12.174Z,45.43
2022-12-06T19:31:41.509Z,39.93
2022-12-06T19:34:16.561Z,43.07
2022-12-06T19:36:44.866Z,44.47
2022-12-06T19:39:13.912Z,43.57
2022-12-06T19:41:59.998Z,37.97
2022-12-06T19:44:29.254Z,38.70
2022-12-06T19:46:58.860Z,40.60
2022-12-06T19:49:27.667Z,38.60
2022-12-06T19:51:55.914Z,39.33
2022-12-06T19:54:26.019Z,44.53
2022-12-06T19:56:56.832Z,55.47
2022-12-06T19:59:26.880Z,49.03
2022-12-06T20:01:58.035Z,47.77
2022-12-06T20:04:30.152Z,45.77
2022-12-06T20:06:58.166Z,48.80
2022-12-06T20:09:27.908Z,52.53
2022-12-06T20:12:02.895Z,43.20
2022-12-06T20:14:35.036Z,48.10
2022-12-06T20:17:03.809Z,55.67
2022-12-06T20:19:33.823Z,53.37
2022-12-06T20:22:01.868Z,60.87
2022-12-06T20:24:29.899Z,51.50
2022-12-06T20:26:57.859Z,50.07
2022-12-06T20:29:29.915Z,44.67
2022-12-06T20:31:59.471Z,51.17
2022-12-06T20:34:29.709Z,41.70
2022-12-06T20:36:59.126Z,37.17
2022-12-06T20:39:28.636Z,36.17
2022-12-06T20:41:56.958Z,32.77
2022-12-06T20:44:24.918Z,31.43
2022-12-06T20:46:54.166Z,30.93
2022-12-06T20:49:22.334Z,35.37
2022-12-06T20:51:53.280Z,30.97
2022-12-06T20:54:23.329Z,34.70
2022-12-06T20:56:53.227Z,29.00
2022-12-06T20:59:21.442Z,35.03
2022-12-06T21:01:50.013Z,35.73
2022-12-06T21:04:18.595Z,29.43
2022-12-06T21:06:46.603Z,30.53
2022-12-06T21:09:14.749Z,28.77
2022-12-06T21:11:44.091Z,33.03
2022-12-06T21:14:14.413Z,30.00
2022-12-06T21:16:43.427Z,30.63
2022-12-06T21:19:14.112Z,28.97
2022-12-06T21:21:45.849Z,30.33
2022-12-06T21:24:15.982Z,29.40
2022-12-06T21:26:45.730Z,32.03
2022-12-06T21:29:16.935Z,27.57
2022-12-06T21:31:45.138Z,31.97
2022-12-06T21:34:13.504Z,28.77
2022-12-06T21:36:41.862Z,31.20
2022-12-06T21:39:11.431Z,29.77
2022-12-06T21:41:39.475Z,29.67
2022-12-06T21:44:08.925Z,27.23
2022-12-06T21:46:36.954Z,30.50
2022-12-06T21:49:04.983Z,30.10
2022-12-06T21:51:33.313Z,29.97
2022-12-06T21:54:01.559Z,26.43
2022-12-06T21:56:31.558Z,33.40
2022-12-06T21:59:01.252Z,32.93
2022-12-06T22:01:32.596Z,29.43
2022-12-06T22:04:02.248Z,28.47
2022-12-06T22:06:31.496Z,26.07
2022-12-06T22:09:01.403Z,29.23
2022-12-06T22:11:30.809Z,30.00
2022-12-06T22:13:59.598Z,32.07
2022-12-06T22:16:28.511Z,27.57
2022-12-06T22:18:58.184Z,29.30
2022-12-06T22:21:30.420Z,29.83
2022-12-06T22:23:59.210Z,29.37
2022-12-06T22:26:29.300Z,30.43
2022-12-06T22:28:58.565Z,33.73
2022-12-06T22:31:28.826Z,32.03
2022-12-06T22:33:59.413Z,31.03
2022-12-06T22:36:28.718Z,31.20
2022-12-06T22:38:58.395Z,31.73
2022-12-06T22:41:26.943Z,28.90
2022-12-06T22:43:56.522Z,35.00
2022-12-06T22:46:26.255Z,31.53
2022-12-06T22:48:55.208Z,28.20
2022-12-06T22:51:26.070Z,36.33
2022-12-06T22:53:56.803Z,27.43
2022-12-06T22:56:26.784Z,32.17
2022-12-06T22:58:55.093Z,31.73
2022-12-06T23:01:24.680Z,30.07
2022-12-06T23:03:54.429Z,30.10
2022-12-06T23:06:25.942Z,30.53
2022-12-06T23:08:55.013Z,30.63
2022-12-06T23:11:25.310Z,30.43
2022-12-06T23:13:53.804Z,33.93
2022-12-06T23:16:23.426Z,29.63
2022-12-06T23:18:52.049Z,33.10
2022-12-06T23:21:21.689Z,35.93
2022-12-06T23:23:53.325Z,33.33
2022-12-06T23:26:23.540Z,34.17
2022-12-06T23:28:51.988Z,33.63
2022-12-06T23:31:22.831Z,28.07
2022-12-06T23:33:54.147Z,26.63
2022-12-06T23:36:23.921Z,31.60
2022-12-06T23:38:53.632Z,28.73
2022-12-06T23:41:23.742Z,26.03
2022-12-06T23:43:51.969Z,26.03
2022-12-06T23:46:22.928Z,28.50
2022-12-06T23:48:51.264Z,26.33
2022-12-06T23:51:20.817Z,24.30
2022-12-06T23:53:51.810Z,22.23
2022-12-06T23:56:22.675Z,25.20
2022-12-06T23:58:51.886Z,23.37
